sensor_id;sensor_type;location;lat;lon;timestamp;temperature;humidity
48551;DHT22;34397;51.176;6.738;2023-05-17T00:01:51;12.50;56.40
48551;DHT22;34397;51.176;6.738;2023-05-17T00:04:22;12.50;56.20
48551;DHT22;34397;51.176;6.738;2023-05-17T00:06:54;12.50;56.20
48551;DHT22;34397;51.176;6.738;2023-05-17T00:09:26;12.50;56.30
48551;DHT22;34397;51.176;6.738;2023-05-17T00:11:59;12.40;56.20
48551;DHT22;34397;51.176;6.738;2023-05-17T00:14:31;12.40;56.10
48551;DHT22;34397;51.176;6.738;2023-05-17T00:17:03;12.40;56.10
48551;DHT22;34397;51.176;6.738;2023-05-17T00:19:35;12.30;56.40
48551;DHT22;34397;51.176;6.738;2023-05-17T00:22:06;12.30;56.60
48551;DHT22;34397;51.176;6.738;2023-05-17T00:24:38;12.30;56.40
48551;DHT22;34397;51.176;6.738;2023-05-17T00:27:11;12.20;56.20
48551;DHT22;34397;51.176;6.738;2023-05-17T00:29:43;12.20;56.00
48551;DHT22;34397;51.176;6.738;2023-05-17T00:32:15;12.10;56.00
48551;DHT22;34397;51.176;6.738;2023-05-17T00:34:46;12.10;56.20
48551;DHT22;34397;51.176;6.738;2023-05-17T00:37:18;12.10;56.50
48551;DHT22;34397;51.176;6.738;2023-05-17T00:39:50;12.10;56.50
48551;DHT22;34397;51.176;6.738;2023-05-17T00:42:23;12.10;56.50
48551;DHT22;34397;51.176;6.738;2023-05-17T00:44:55;12.00;56.40
48551;DHT22;34397;51.176;6.738;2023-05-17T00:47:27;12.00;56.50
48551;DHT22;34397;51.176;6.738;2023-05-17T00:49:58;12.00;56.60
48551;DHT22;34397;51.176;6.738;2023-05-17T00:52:30;12.00;56.60
48551;DHT22;34397;51.176;6.738;2023-05-17T00:55:02;11.90;56.70
48551;DHT22;34397;51.176;6.738;2023-05-17T00:57:37;11.90;57.30
48551;DHT22;34397;51.176;6.738;2023-05-17T01:00:09;11.80;57.10
48551;DHT22;34397;51.176;6.738;2023-05-17T01:02:41;11.80;56.80
48551;DHT22;34397;51.176;6.738;2023-05-17T01:05:16;11.70;57.50
48551;DHT22;34397;51.176;6.738;2023-05-17T01:07:48;11.60;57.00
48551;DHT22;34397;51.176;6.738;2023-05-17T01:10:20;11.60;57.80
48551;DHT22;34397;51.176;6.738;2023-05-17T01:12:57;11.50;57.00
48551;DHT22;34397;51.176;6.738;2023-05-17T01:15:35;11.50;57.30
48551;DHT22;34397;51.176;6.738;2023-05-17T01:18:11;11.50;57.00
48551;DHT22;34397;51.176;6.738;2023-05-17T01:20:48;11.50;57.20
48551;DHT22;34397;51.176;6.738;2023-05-17T01:23:30;11.40;57.40
48551;DHT22;34397;51.176;6.738;2023-05-17T01:26:09;11.40;57.60
48551;DHT22;34397;51.176;6.738;2023-05-17T01:28:46;11.40;57.60
48551;DHT22;34397;51.176;6.738;2023-05-17T01:31:20;11.40;57.70
48551;DHT22;34397;51.176;6.738;2023-05-17T01:33:52;11.40;57.60
48551;DHT22;34397;51.176;6.738;2023-05-17T01:36:27;11.40;57.70
48551;DHT22;34397;51.176;6.738;2023-05-17T01:38:58;11.30;58.00
48551;DHT22;34397;51.176;6.738;2023-05-17T01:41:32;11.30;57.70
48551;DHT22;34397;51.176;6.738;2023-05-17T01:44:10;11.30;57.90
48551;DHT22;34397;51.176;6.738;2023-05-17T01:46:45;11.20;57.60
48551;DHT22;34397;51.176;6.738;2023-05-17T01:49:19;11.20;57.70
48551;DHT22;34397;51.176;6.738;2023-05-17T01:51:54;11.10;57.70
48551;DHT22;34397;51.176;6.738;2023-05-17T01:54:30;11.10;58.00
48551;DHT22;34397;51.176;6.738;2023-05-17T01:57:03;11.10;57.90
48551;DHT22;34397;51.176;6.738;2023-05-17T01:59:38;11.10;58.00
48551;DHT22;34397;51.176;6.738;2023-05-17T02:02:10;11.00;58.00
48551;DHT22;34397;51.176;6.738;2023-05-17T02:04:43;11.00;58.10
48551;DHT22;34397;51.176;6.738;2023-05-17T02:07:14;10.90;58.00
48551;DHT22;34397;51.176;6.738;2023-05-17T02:09:46;10.90;58.10
48551;DHT22;34397;51.176;6.738;2023-05-17T02:12:18;10.90;58.20
48551;DHT22;34397;51.176;6.738;2023-05-17T02:14:51;10.80;58.30
48551;DHT22;34397;51.176;6.738;2023-05-17T02:17:23;10.80;58.50
48551;DHT22;34397;51.176;6.738;2023-05-17T02:19:54;10.80;58.80
48551;DHT22;34397;51.176;6.738;2023-05-17T02:22:26;10.80;58.90
48551;DHT22;34397;51.176;6.738;2023-05-17T02:24:58;10.80;59.00
48551;DHT22;34397;51.176;6.738;2023-05-17T02:27:29;10.80;59.20
48551;DHT22;34397;51.176;6.738;2023-05-17T02:30:03;10.80;59.20
48551;DHT22;34397;51.176;6.738;2023-05-17T02:32:35;10.70;59.30
48551;DHT22;34397;51.176;6.738;2023-05-17T02:35:08;10.70;59.70
48551;DHT22;34397;51.176;6.738;2023-05-17T02:37:39;10.60;60.00
48551;DHT22;34397;51.176;6.738;2023-05-17T02:40:11;10.60;61.40
48551;DHT22;34397;51.176;6.738;2023-05-17T02:42:43;10.50;61.30
48551;DHT22;34397;51.176;6.738;2023-05-17T02:45:17;10.50;61.30
48551;DHT22;34397;51.176;6.738;2023-05-17T02:47:48;10.40;60.80
48551;DHT22;34397;51.176;6.738;2023-05-17T02:50:20;10.40;60.60
48551;DHT22;34397;51.176;6.738;2023-05-17T02:52:52;10.30;60.00
48551;DHT22;34397;51.176;6.738;2023-05-17T02:55:23;10.40;59.80
48551;DHT22;34397;51.176;6.738;2023-05-17T02:57:55;10.40;59.90
48551;DHT22;34397;51.176;6.738;2023-05-17T03:00:28;10.30;59.80
48551;DHT22;34397;51.176;6.738;2023-05-17T03:03:00;10.30;59.90
48551;DHT22;34397;51.176;6.738;2023-05-17T03:05:32;10.30;59.90
48551;DHT22;34397;51.176;6.738;2023-05-17T03:08:04;10.30;60.00
48551;DHT22;34397;51.176;6.738;2023-05-17T03:10:35;10.30;60.20
48551;DHT22;34397;51.176;6.738;2023-05-17T03:13:07;10.30;60.10
48551;DHT22;34397;51.176;6.738;2023-05-17T03:15:40;10.30;60.00
48551;DHT22;34397;51.176;6.738;2023-05-17T03:18:12;10.30;60.20
48551;DHT22;34397;51.176;6.738;2023-05-17T03:20:44;10.30;60.60
48551;DHT22;34397;51.176;6.738;2023-05-17T03:23:16;10.30;61.00
48551;DHT22;34397;51.176;6.738;2023-05-17T03:25:48;10.30;61.30
48551;DHT22;34397;51.176;6.738;2023-05-17T03:28:20;10.30;61.70
48551;DHT22;34397;51.176;6.738;2023-05-17T03:30:53;10.30;61.70
48551;DHT22;34397;51.176;6.738;2023-05-17T03:33:25;10.30;61.50
48551;DHT22;34397;51.176;6.738;2023-05-17T03:35:56;10.30;61.30
48551;DHT22;34397;51.176;6.738;2023-05-17T03:38:28;10.30;61.30
48551;DHT22;34397;51.176;6.738;2023-05-17T03:41:00;10.30;61.30
48551;DHT22;34397;51.176;6.738;2023-05-17T03:43:32;10.30;61.30
48551;DHT22;34397;51.176;6.738;2023-05-17T03:46:05;10.20;61.30
48551;DHT22;34397;51.176;6.738;2023-05-17T03:48:37;10.20;61.20
48551;DHT22;34397;51.176;6.738;2023-05-17T03:51:08;10.10;61.00
48551;DHT22;34397;51.176;6.738;2023-05-17T03:53:40;10.10;61.10
48551;DHT22;34397;51.176;6.738;2023-05-17T03:56:12;10.10;61.00
48551;DHT22;34397;51.176;6.738;2023-05-17T03:58:45;10.00;61.10
48551;DHT22;34397;51.176;6.738;2023-05-17T04:01:18;10.00;61.60
48551;DHT22;34397;51.176;6.738;2023-05-17T04:03:50;10.00;62.00
48551;DHT22;34397;51.176;6.738;2023-05-17T04:06:22;10.00;61.70
48551;DHT22;34397;51.176;6.738;2023-05-17T04:08:54;10.00;61.90
48551;DHT22;34397;51.176;6.738;2023-05-17T04:11:26;10.00;63.40
48551;DHT22;34397;51.176;6.738;2023-05-17T04:13:58;10.10;63.20
48551;DHT22;34397;51.176;6.738;2023-05-17T04:16:31;10.10;63.20
48551;DHT22;34397;51.176;6.738;2023-05-17T04:19:02;10.10;62.70
48551;DHT22;34397;51.176;6.738;2023-05-17T04:21:34;10.20;62.70
48551;DHT22;34397;51.176;6.738;2023-05-17T04:24:06;10.30;63.00
48551;DHT22;34397;51.176;6.738;2023-05-17T04:26:38;10.30;62.80
48551;DHT22;34397;51.176;6.738;2023-05-17T04:29:10;10.30;62.40
48551;DHT22;34397;51.176;6.738;2023-05-17T04:31:43;10.40;63.00
48551;DHT22;34397;51.176;6.738;2023-05-17T04:34:18;10.40;63.40
48551;DHT22;34397;51.176;6.738;2023-05-17T04:36:51;10.40;65.00
48551;DHT22;34397;51.176;6.738;2023-05-17T04:39:23;10.50;64.20
48551;DHT22;34397;51.176;6.738;2023-05-17T04:41:55;10.50;63.40
48551;DHT22;34397;51.176;6.738;2023-05-17T04:44:26;10.60;63.90
48551;DHT22;34397;51.176;6.738;2023-05-17T04:47:00;10.60;64.00
48551;DHT22;34397;51.176;6.738;2023-05-17T04:49:33;10.60;63.60
48551;DHT22;34397;51.176;6.738;2023-05-17T04:52:04;10.60;64.80
48551;DHT22;34397;51.176;6.738;2023-05-17T04:54:36;10.60;65.10
48551;DHT22;34397;51.176;6.738;2023-05-17T04:57:08;10.60;65.20
48551;DHT22;34397;51.176;6.738;2023-05-17T04:59:40;10.60;65.10
48551;DHT22;34397;51.176;6.738;2023-05-17T05:02:13;10.70;65.10
48551;DHT22;34397;51.176;6.738;2023-05-17T05:04:45;10.60;65.30
48551;DHT22;34397;51.176;6.738;2023-05-17T05:07:17;10.60;64.50
48551;DHT22;34397;51.176;6.738;2023-05-17T05:09:49;10.70;64.70
48551;DHT22;34397;51.176;6.738;2023-05-17T05:12:20;10.60;64.30
48551;DHT22;34397;51.176;6.738;2023-05-17T05:14:52;10.60;65.90
48551;DHT22;34397;51.176;6.738;2023-05-17T05:17:27;10.60;64.50
48551;DHT22;34397;51.176;6.738;2023-05-17T05:20:00;10.60;65.90
48551;DHT22;34397;51.176;6.738;2023-05-17T05:22:33;10.60;65.20
48551;DHT22;34397;51.176;6.738;2023-05-17T05:25:05;10.70;66.30
48551;DHT22;34397;51.176;6.738;2023-05-17T05:27:38;10.70;64.70
48551;DHT22;34397;51.176;6.738;2023-05-17T05:30:10;10.80;64.40
48551;DHT22;34397;51.176;6.738;2023-05-17T05:32:44;10.80;65.30
48551;DHT22;34397;51.176;6.738;2023-05-17T05:35:15;10.90;66.90
48551;DHT22;34397;51.176;6.738;2023-05-17T05:37:48;11.00;64.60
48551;DHT22;34397;51.176;6.738;2023-05-17T05:40:19;11.10;64.20
48551;DHT22;34397;51.176;6.738;2023-05-17T05:42:52;11.20;63.90
48551;DHT22;34397;51.176;6.738;2023-05-17T05:45:23;11.30;65.50
48551;DHT22;34397;51.176;6.738;2023-05-17T05:47:56;11.30;64.50
48551;DHT22;34397;51.176;6.738;2023-05-17T05:50:28;11.40;63.50
48551;DHT22;34397;51.176;6.738;2023-05-17T05:53:00;11.40;63.20
48551;DHT22;34397;51.176;6.738;2023-05-17T05:55:32;11.40;63.00
48551;DHT22;34397;51.176;6.738;2023-05-17T05:58:04;11.50;62.90
48551;DHT22;34397;51.176;6.738;2023-05-17T06:00:36;11.50;63.20
48551;DHT22;34397;51.176;6.738;2023-05-17T06:03:09;11.60;62.80
48551;DHT22;34397;51.176;6.738;2023-05-17T06:05:41;11.60;62.80
48551;DHT22;34397;51.176;6.738;2023-05-17T06:08:13;11.70;62.80
48551;DHT22;34397;51.176;6.738;2023-05-17T06:10:45;11.60;62.50
48551;DHT22;34397;51.176;6.738;2023-05-17T06:13:17;11.70;62.50
48551;DHT22;34397;51.176;6.738;2023-05-17T06:15:48;11.70;62.30
48551;DHT22;34397;51.176;6.738;2023-05-17T06:18:21;11.70;62.30
48551;DHT22;34397;51.176;6.738;2023-05-17T06:20:53;11.80;62.20
48551;DHT22;34397;51.176;6.738;2023-05-17T06:23:25;11.80;62.20
48551;DHT22;34397;51.176;6.738;2023-05-17T06:25:56;11.80;62.30
48551;DHT22;34397;51.176;6.738;2023-05-17T06:28:28;11.80;62.40
48551;DHT22;34397;51.176;6.738;2023-05-17T06:31:00;11.90;63.00
48551;DHT22;34397;51.176;6.738;2023-05-17T06:33:33;11.90;62.40
48551;DHT22;34397;51.176;6.738;2023-05-17T06:36:05;11.90;62.50
48551;DHT22;34397;51.176;6.738;2023-05-17T06:38:37;12.00;62.40
48551;DHT22;34397;51.176;6.738;2023-05-17T06:41:09;12.00;62.10
48551;DHT22;34397;51.176;6.738;2023-05-17T06:43:41;12.10;61.90
48551;DHT22;34397;51.176;6.738;2023-05-17T06:46:12;12.10;61.70
48551;DHT22;34397;51.176;6.738;2023-05-17T06:48:45;12.10;61.90
48551;DHT22;34397;51.176;6.738;2023-05-17T06:51:17;12.00;61.70
48551;DHT22;34397;51.176;6.738;2023-05-17T06:53:49;12.10;61.70
48551;DHT22;34397;51.176;6.738;2023-05-17T06:56:20;12.10;61.50
48551;DHT22;34397;51.176;6.738;2023-05-17T06:58:52;12.10;61.30
48551;DHT22;34397;51.176;6.738;2023-05-17T07:01:24;12.20;61.10
48551;DHT22;34397;51.176;6.738;2023-05-17T07:03:58;12.20;60.70
48551;DHT22;34397;51.176;6.738;2023-05-17T07:06:30;12.30;61.10
48551;DHT22;34397;51.176;6.738;2023-05-17T07:09:02;12.40;61.00
48551;DHT22;34397;51.176;6.738;2023-05-17T07:11:33;12.40;60.60
48551;DHT22;34397;51.176;6.738;2023-05-17T07:14:05;12.50;60.20
48551;DHT22;34397;51.176;6.738;2023-05-17T07:16:37;12.50;60.10
48551;DHT22;34397;51.176;6.738;2023-05-17T07:19:10;12.50;59.90
48551;DHT22;34397;51.176;6.738;2023-05-17T07:21:42;12.50;59.80
48551;DHT22;34397;51.176;6.738;2023-05-17T07:24:13;12.50;59.70
48551;DHT22;34397;51.176;6.738;2023-05-17T07:26:45;12.50;59.60
48551;DHT22;34397;51.176;6.738;2023-05-17T07:29:17;12.60;59.60
48551;DHT22;34397;51.176;6.738;2023-05-17T07:31:49;12.60;59.40
48551;DHT22;34397;51.176;6.738;2023-05-17T07:34:22;12.70;59.40
48551;DHT22;34397;51.176;6.738;2023-05-17T07:36:54;12.80;59.40
48551;DHT22;34397;51.176;6.738;2023-05-17T07:39:25;12.80;59.10
48551;DHT22;34397;51.176;6.738;2023-05-17T07:41:57;12.90;58.80
48551;DHT22;34397;51.176;6.738;2023-05-17T07:44:29;13.00;58.60
48551;DHT22;34397;51.176;6.738;2023-05-17T07:47:01;13.00;58.10
48551;DHT22;34397;51.176;6.738;2023-05-17T07:49:34;13.00;58.00
48551;DHT22;34397;51.176;6.738;2023-05-17T07:52:06;13.10;57.60
48551;DHT22;34397;51.176;6.738;2023-05-17T07:54:37;13.10;57.50
48551;DHT22;34397;51.176;6.738;2023-05-17T07:57:12;13.10;57.20
48551;DHT22;34397;51.176;6.738;2023-05-17T07:59:44;13.10;56.70
48551;DHT22;34397;51.176;6.738;2023-05-17T08:02:16;13.20;56.70
48551;DHT22;34397;51.176;6.738;2023-05-17T08:04:49;13.20;56.50
48551;DHT22;34397;51.176;6.738;2023-05-17T08:07:20;13.20;56.30
48551;DHT22;34397;51.176;6.738;2023-05-17T08:09:52;13.20;56.00
48551;DHT22;34397;51.176;6.738;2023-05-17T08:12:24;13.20;55.90
48551;DHT22;34397;51.176;6.738;2023-05-17T08:14:56;13.20;55.70
48551;DHT22;34397;51.176;6.738;2023-05-17T08:17:27;13.20;55.60
48551;DHT22;34397;51.176;6.738;2023-05-17T08:20:01;13.20;55.50
48551;DHT22;34397;51.176;6.738;2023-05-17T08:22:34;13.20;55.20
48551;DHT22;34397;51.176;6.738;2023-05-17T08:25:06;13.20;55.20
48551;DHT22;34397;51.176;6.738;2023-05-17T08:27:39;13.20;55.00
48551;DHT22;34397;51.176;6.738;2023-05-17T08:30:11;13.20;55.10
48551;DHT22;34397;51.176;6.738;2023-05-17T08:32:43;13.20;54.90
48551;DHT22;34397;51.176;6.738;2023-05-17T08:35:16;13.20;55.10
48551;DHT22;34397;51.176;6.738;2023-05-17T08:37:48;13.30;54.90
48551;DHT22;34397;51.176;6.738;2023-05-17T08:40:20;13.40;54.60
48551;DHT22;34397;51.176;6.738;2023-05-17T08:42:52;13.40;54.50
48551;DHT22;34397;51.176;6.738;2023-05-17T08:45:24;13.40;54.10
48551;DHT22;34397;51.176;6.738;2023-05-17T08:47:59;13.50;54.00
48551;DHT22;34397;51.176;6.738;2023-05-17T08:50:32;13.60;54.20
48551;DHT22;34397;51.176;6.738;2023-05-17T08:53:05;13.60;54.10
48551;DHT22;34397;51.176;6.738;2023-05-17T08:55:38;13.70;54.00
48551;DHT22;34397;51.176;6.738;2023-05-17T08:58:11;13.80;53.90
48551;DHT22;34397;51.176;6.738;2023-05-17T09:00:44;14.00;53.90
48551;DHT22;34397;51.176;6.738;2023-05-17T09:03:17;14.00;53.40
48551;DHT22;34397;51.176;6.738;2023-05-17T09:05:50;14.20;52.80
48551;DHT22;34397;51.176;6.738;2023-05-17T09:08:22;14.30;53.30
48551;DHT22;34397;51.176;6.738;2023-05-17T09:10:54;14.40;52.90
48551;DHT22;34397;51.176;6.738;2023-05-17T09:13:35;14.60;52.30
48551;DHT22;34397;51.176;6.738;2023-05-17T09:16:11;14.70;50.00
48551;DHT22;34397;51.176;6.738;2023-05-17T09:18:45;14.80;51.40
48551;DHT22;34397;51.176;6.738;2023-05-17T09:21:25;14.80;50.50
48551;DHT22;34397;51.176;6.738;2023-05-17T09:23:58;14.90;50.90
48551;DHT22;34397;51.176;6.738;2023-05-17T09:26:37;14.90;50.40
48551;DHT22;34397;51.176;6.738;2023-05-17T09:29:09;15.00;50.10
48551;DHT22;34397;51.176;6.738;2023-05-17T09:31:42;15.10;50.50
48551;DHT22;34397;51.176;6.738;2023-05-17T09:34:16;15.20;49.10
48551;DHT22;34397;51.176;6.738;2023-05-17T09:36:50;15.30;49.30
48551;DHT22;34397;51.176;6.738;2023-05-17T09:39:23;15.40;48.70
48551;DHT22;34397;51.176;6.738;2023-05-17T09:41:55;15.50;48.90
48551;DHT22;34397;51.176;6.738;2023-05-17T09:44:27;15.70;48.60
48551;DHT22;34397;51.176;6.738;2023-05-17T09:46:59;16.10;46.80
48551;DHT22;34397;51.176;6.738;2023-05-17T09:49:31;16.40;47.90
48551;DHT22;34397;51.176;6.738;2023-05-17T09:52:06;16.80;43.90
48551;DHT22;34397;51.176;6.738;2023-05-17T09:54:38;17.00;47.00
48551;DHT22;34397;51.176;6.738;2023-05-17T09:57:10;17.20;47.10
48551;DHT22;34397;51.176;6.738;2023-05-17T09:59:42;17.30;46.80
48551;DHT22;34397;51.176;6.738;2023-05-17T10:02:17;17.30;45.70
48551;DHT22;34397;51.176;6.738;2023-05-17T10:04:51;17.30;46.00
48551;DHT22;34397;51.176;6.738;2023-05-17T10:07:25;17.40;44.70
48551;DHT22;34397;51.176;6.738;2023-05-17T10:09:57;17.60;44.90
48551;DHT22;34397;51.176;6.738;2023-05-17T10:12:29;17.90;42.90
48551;DHT22;34397;51.176;6.738;2023-05-17T10:15:04;18.30;42.90
48551;DHT22;34397;51.176;6.738;2023-05-17T10:17:37;18.80;43.00
48551;DHT22;34397;51.176;6.738;2023-05-17T10:20:11;19.20;41.30
48551;DHT22;34397;51.176;6.738;2023-05-17T10:22:44;19.50;40.80
48551;DHT22;34397;51.176;6.738;2023-05-17T10:25:17;19.90;40.70
48551;DHT22;34397;51.176;6.738;2023-05-17T10:27:49;20.20;41.60
48551;DHT22;34397;51.176;6.738;2023-05-17T10:30:21;20.40;36.70
48551;DHT22;34397;51.176;6.738;2023-05-17T10:32:53;20.50;36.10
48551;DHT22;34397;51.176;6.738;2023-05-17T10:35:26;20.60;38.10
48551;DHT22;34397;51.176;6.738;2023-05-17T10:37:59;20.80;36.80
48551;DHT22;34397;51.176;6.738;2023-05-17T10:40:31;20.90;36.10
48551;DHT22;34397;51.176;6.738;2023-05-17T10:43:03;21.10;38.80
48551;DHT22;34397;51.176;6.738;2023-05-17T10:45:36;21.30;36.50
48551;DHT22;34397;51.176;6.738;2023-05-17T10:48:08;21.60;37.50
48551;DHT22;34397;51.176;6.738;2023-05-17T10:50:41;21.90;37.20
48551;DHT22;34397;51.176;6.738;2023-05-17T10:53:17;22.20;35.60
48551;DHT22;34397;51.176;6.738;2023-05-17T10:55:49;22.50;34.50
48551;DHT22;34397;51.176;6.738;2023-05-17T10:58:22;22.90;37.50
48551;DHT22;34397;51.176;6.738;2023-05-17T11:00:56;23.20;34.50
48551;DHT22;34397;51.176;6.738;2023-05-17T11:03:29;23.50;33.10
48551;DHT22;34397;51.176;6.738;2023-05-17T11:06:10;23.80;34.80
48551;DHT22;34397;51.176;6.738;2023-05-17T11:08:45;24.00;32.00
48551;DHT22;34397;51.176;6.738;2023-05-17T11:11:17;24.00;32.20
48551;DHT22;34397;51.176;6.738;2023-05-17T11:13:50;24.10;33.40
48551;DHT22;34397;51.176;6.738;2023-05-17T11:16:27;24.40;32.40
48551;DHT22;34397;51.176;6.738;2023-05-17T11:19:06;24.60;31.30
48551;DHT22;34397;51.176;6.738;2023-05-17T11:21:44;24.80;31.40
48551;DHT22;34397;51.176;6.738;2023-05-17T11:24:25;24.80;30.00
48551;DHT22;34397;51.176;6.738;2023-05-17T11:26:57;24.70;32.50
48551;DHT22;34397;51.176;6.738;2023-05-17T11:29:30;24.50;31.40
48551;DHT22;34397;51.176;6.738;2023-05-17T11:32:04;24.40;33.00
48551;DHT22;34397;51.176;6.738;2023-05-17T11:34:36;24.30;32.70
48551;DHT22;34397;51.176;6.738;2023-05-17T11:37:11;24.40;32.10
48551;DHT22;34397;51.176;6.738;2023-05-17T11:40:04;24.40;31.90
48551;DHT22;34397;51.176;6.738;2023-05-17T11:42:37;24.60;31.20
48551;DHT22;34397;51.176;6.738;2023-05-17T11:45:09;24.70;31.20
48551;DHT22;34397;51.176;6.738;2023-05-17T11:47:41;24.90;31.70
48551;DHT22;34397;51.176;6.738;2023-05-17T11:50:18;25.00;30.20
48551;DHT22;34397;51.176;6.738;2023-05-17T11:52:50;25.20;30.80
48551;DHT22;34397;51.176;6.738;2023-05-17T11:55:28;25.40;31.80
48551;DHT22;34397;51.176;6.738;2023-05-17T11:58:01;25.60;30.10
48551;DHT22;34397;51.176;6.738;2023-05-17T12:00:34;25.80;29.00
48551;DHT22;34397;51.176;6.738;2023-05-17T12:03:16;26.00;29.80
48551;DHT22;34397;51.176;6.738;2023-05-17T12:05:49;26.20;29.70
48551;DHT22;34397;51.176;6.738;2023-05-17T12:08:21;26.40;30.20
48551;DHT22;34397;51.176;6.738;2023-05-17T12:10:54;26.50;30.00
48551;DHT22;34397;51.176;6.738;2023-05-17T12:13:27;26.50;30.80
48551;DHT22;34397;51.176;6.738;2023-05-17T12:15:59;26.30;30.70
48551;DHT22;34397;51.176;6.738;2023-05-17T12:18:35;26.10;31.00
48551;DHT22;34397;51.176;6.738;2023-05-17T12:21:08;25.90;31.30
48551;DHT22;34397;51.176;6.738;2023-05-17T12:23:41;25.90;30.40
48551;DHT22;34397;51.176;6.738;2023-05-17T12:26:15;25.90;29.80
48551;DHT22;34397;51.176;6.738;2023-05-17T12:28:52;25.90;30.10
48551;DHT22;34397;51.176;6.738;2023-05-17T12:31:25;26.00;29.80
48551;DHT22;34397;51.176;6.738;2023-05-17T12:33:58;26.20;29.50
48551;DHT22;34397;51.176;6.738;2023-05-17T12:36:31;26.40;30.00
48551;DHT22;34397;51.176;6.738;2023-05-17T12:39:04;26.60;30.00
48551;DHT22;34397;51.176;6.738;2023-05-17T12:41:40;26.70;29.80
48551;DHT22;34397;51.176;6.738;2023-05-17T12:44:12;26.90;29.50
48551;DHT22;34397;51.176;6.738;2023-05-17T12:46:45;27.00;29.60
48551;DHT22;34397;51.176;6.738;2023-05-17T12:49:22;27.10;28.80
48551;DHT22;34397;51.176;6.738;2023-05-17T12:51:54;27.10;29.30
48551;DHT22;34397;51.176;6.738;2023-05-17T12:54:26;27.20;29.00
48551;DHT22;34397;51.176;6.738;2023-05-17T12:57:09;27.20;30.00
48551;DHT22;34397;51.176;6.738;2023-05-17T12:59:46;27.10;28.50
48551;DHT22;34397;51.176;6.738;2023-05-17T13:02:19;27.10;29.20
48551;DHT22;34397;51.176;6.738;2023-05-17T13:04:50;27.10;29.60
48551;DHT22;34397;51.176;6.738;2023-05-17T13:07:22;27.10;28.60
48551;DHT22;34397;51.176;6.738;2023-05-17T13:09:54;27.00;28.70
48551;DHT22;34397;51.176;6.738;2023-05-17T13:12:27;27.00;28.70
48551;DHT22;34397;51.176;6.738;2023-05-17T13:14:59;27.00;29.00
48551;DHT22;34397;51.176;6.738;2023-05-17T13:17:33;27.00;28.30
48551;DHT22;34397;51.176;6.738;2023-05-17T13:20:06;27.10;28.60
48551;DHT22;34397;51.176;6.738;2023-05-17T13:22:39;27.20;28.90
48551;DHT22;34397;51.176;6.738;2023-05-17T13:25:11;27.30;28.40
48551;DHT22;34397;51.176;6.738;2023-05-17T13:27:45;27.30;29.50
48551;DHT22;34397;51.176;6.738;2023-05-17T13:30:18;27.20;28.70
48551;DHT22;34397;51.176;6.738;2023-05-17T13:32:49;27.20;28.30
48551;DHT22;34397;51.176;6.738;2023-05-17T13:35:21;27.10;28.20
48551;DHT22;34397;51.176;6.738;2023-05-17T13:37:55;27.10;27.50
48551;DHT22;34397;51.176;6.738;2023-05-17T13:40:28;27.00;28.10
48551;DHT22;34397;51.176;6.738;2023-05-17T13:43:01;26.90;28.40
48551;DHT22;34397;51.176;6.738;2023-05-17T13:45:33;26.90;28.70
48551;DHT22;34397;51.176;6.738;2023-05-17T13:48:04;26.80;28.80
48551;DHT22;34397;51.176;6.738;2023-05-17T13:50:36;26.70;28.50
48551;DHT22;34397;51.176;6.738;2023-05-17T13:53:08;26.70;28.60
48551;DHT22;34397;51.176;6.738;2023-05-17T13:55:40;26.80;29.40
48551;DHT22;34397;51.176;6.738;2023-05-17T13:58:13;26.80;28.60
48551;DHT22;34397;51.176;6.738;2023-05-17T14:00:47;26.90;29.00
48551;DHT22;34397;51.176;6.738;2023-05-17T14:03:18;26.90;29.30
48551;DHT22;34397;51.176;6.738;2023-05-17T14:05:50;26.90;28.60
48551;DHT22;34397;51.176;6.738;2023-05-17T14:08:22;26.90;29.70
48551;DHT22;34397;51.176;6.738;2023-05-17T14:10:54;26.90;27.90
48551;DHT22;34397;51.176;6.738;2023-05-17T14:13:27;26.90;28.90
48551;DHT22;34397;51.176;6.738;2023-05-17T14:15:59;26.80;28.30
48551;DHT22;34397;51.176;6.738;2023-05-17T14:18:31;26.70;28.40
48551;DHT22;34397;51.176;6.738;2023-05-17T14:21:03;26.60;28.80
48551;DHT22;34397;51.176;6.738;2023-05-17T14:23:34;26.50;28.90
48551;DHT22;34397;51.176;6.738;2023-05-17T14:26:06;26.30;29.40
48551;DHT22;34397;51.176;6.738;2023-05-17T14:28:40;26.20;28.80
48551;DHT22;34397;51.176;6.738;2023-05-17T14:31:11;26.00;29.30
48551;DHT22;34397;51.176;6.738;2023-05-17T14:33:43;25.90;29.40
48551;DHT22;34397;51.176;6.738;2023-05-17T14:36:15;25.70;30.00
48551;DHT22;34397;51.176;6.738;2023-05-17T14:38:46;25.40;29.10
48551;DHT22;34397;51.176;6.738;2023-05-17T14:41:18;25.20;29.80
48551;DHT22;34397;51.176;6.738;2023-05-17T14:43:52;25.00;29.60
48551;DHT22;34397;51.176;6.738;2023-05-17T14:46:24;24.80;29.30
48551;DHT22;34397;51.176;6.738;2023-05-17T14:48:56;24.50;29.20
48551;DHT22;34397;51.176;6.738;2023-05-17T14:51:27;24.30;29.30
48551;DHT22;34397;51.176;6.738;2023-05-17T14:53:59;24.00;29.60
48551;DHT22;34397;51.176;6.738;2023-05-17T14:56:31;23.80;30.30
48551;DHT22;34397;51.176;6.738;2023-05-17T14:59:05;23.70;30.70
48551;DHT22;34397;51.176;6.738;2023-05-17T15:01:37;23.50;31.00
48551;DHT22;34397;51.176;6.738;2023-05-17T15:04:09;23.40;30.60
48551;DHT22;34397;51.176;6.738;2023-05-17T15:06:42;23.30;31.00
48551;DHT22;34397;51.176;6.738;2023-05-17T15:09:15;23.20;30.00
48551;DHT22;34397;51.176;6.738;2023-05-17T15:11:47;23.10;30.80
48551;DHT22;34397;51.176;6.738;2023-05-17T15:14:21;23.10;30.70
48551;DHT22;34397;51.176;6.738;2023-05-17T15:16:53;23.00;31.40
48551;DHT22;34397;51.176;6.738;2023-05-17T15:19:25;23.00;31.80
48551;DHT22;34397;51.176;6.738;2023-05-17T15:21:57;22.90;31.00
48551;DHT22;34397;51.176;6.738;2023-05-17T15:24:31;22.90;33.00
48551;DHT22;34397;51.176;6.738;2023-05-17T15:27:03;22.80;31.80
48551;DHT22;34397;51.176;6.738;2023-05-17T15:29:37;22.70;32.00
48551;DHT22;34397;51.176;6.738;2023-05-17T15:32:10;22.60;32.80
48551;DHT22;34397;51.176;6.738;2023-05-17T15:34:41;22.60;33.00
48551;DHT22;34397;51.176;6.738;2023-05-17T15:37:14;22.50;32.60
48551;DHT22;34397;51.176;6.738;2023-05-17T15:39:46;22.40;32.70
48551;DHT22;34397;51.176;6.738;2023-05-17T15:42:17;22.40;32.70
48551;DHT22;34397;51.176;6.738;2023-05-17T15:44:51;22.50;33.50
48551;DHT22;34397;51.176;6.738;2023-05-17T15:47:22;22.50;33.30
48551;DHT22;34397;51.176;6.738;2023-05-17T15:49:54;22.50;32.80
48551;DHT22;34397;51.176;6.738;2023-05-17T15:52:27;22.50;32.60
48551;DHT22;34397;51.176;6.738;2023-05-17T15:54:58;22.50;32.80
48551;DHT22;34397;51.176;6.738;2023-05-17T15:57:30;22.50;33.60
48551;DHT22;34397;51.176;6.738;2023-05-17T16:00:04;22.50;33.70
48551;DHT22;34397;51.176;6.738;2023-05-17T16:02:37;22.50;33.90
48551;DHT22;34397;51.176;6.738;2023-05-17T16:05:08;22.40;33.40